createdAt,value
2022-08-18T00:01:32.460Z,42.08
2022-08-18T00:04:03.215Z,40.45
2022-08-18T00:06:30.728Z,37.28
2022-08-18T00:09:02.860Z,41.28
2022-08-18T00:11:41.058Z,44.22
2022-08-18T00:14:11.906Z,40.55
2022-08-18T00:16:53.368Z,44.28
2022-08-18T00:19:20.758Z,40.45
2022-08-18T00:22:08.013Z,43.53
2022-08-18T00:24:34.971Z,41.90
2022-08-18T00:27:02.017Z,45.47
2022-08-18T00:29:28.792Z,43.42
2022-08-18T00:31:55.493Z,40.88
2022-08-18T00:34:22.288Z,45.92
2022-08-18T00:36:50.188Z,47.25
2022-08-18T00:39:17.345Z,45.03
2022-08-18T00:41:44.075Z,47.75
2022-08-18T00:44:10.805Z,44.67
2022-08-18T00:46:38.154Z,47.78
2022-08-18T00:49:05.083Z,48.60
2022-08-18T00:51:43.298Z,46.78
2022-08-18T00:54:18.914Z,44.78
2022-08-18T00:56:49.766Z,42.40
2022-08-18T00:59:46.429Z,44.72
2022-08-18T01:02:22.143Z,41.35
2022-08-18T01:04:57.608Z,44.25
2022-08-18T01:07:29.929Z,42.03
2022-08-18T01:10:00.553Z,42.28
2022-08-18T01:12:44.899Z,46.92
2022-08-18T01:15:28.981Z,41.90
2022-08-18T01:18:17.351Z,42.63
2022-08-18T01:21:11.911Z,51.92
2022-08-18T01:23:39.612Z,48.25
2022-08-18T01:26:06.523Z,43.05
2022-08-18T01:28:39.313Z,43.38
2022-08-18T01:31:07.226Z,47.47
2022-08-18T01:33:39.240Z,43.15
2022-08-18T01:36:16.723Z,49.90
2022-08-18T01:38:53.148Z,41.35
2022-08-18T01:41:29.753Z,41.40
2022-08-18T01:44:02.443Z,46.53
2022-08-18T01:46:33.798Z,51.47
2022-08-18T01:49:01.557Z,42.20
2022-08-18T01:51:40.223Z,41.55
2022-08-18T01:54:12.558Z,46.97
2022-08-18T01:59:10.389Z,41.92
2022-08-18T02:01:43.352Z,44.45
2022-08-18T02:04:34.453Z,40.85
2022-08-18T02:07:04.715Z,49.35
2022-08-18T02:09:31.445Z,41.28
2022-08-18T02:11:58.122Z,45.22
2022-08-18T02:14:25.151Z,44.70
2022-08-18T02:17:01.479Z,45.97
2022-08-18T02:19:34.228Z,45.15
2022-08-18T02:22:01.466Z,46.55
2022-08-18T02:24:28.287Z,47.47
2022-08-18T02:26:55.242Z,47.45
2022-08-18T02:29:22.098Z,48.40
2022-08-18T02:31:48.782Z,45.85
2022-08-18T02:34:17.087Z,46.10
2022-08-18T02:36:44.178Z,49.60
2022-08-18T02:39:11.269Z,49.90
2022-08-18T02:41:38.113Z,47.85
2022-08-18T02:44:07.273Z,47.53
2022-08-18T02:46:34.408Z,50.67
2022-08-18T02:49:01.532Z,50.08
2022-08-18T02:51:28.528Z,50.28
2022-08-18T02:53:59.036Z,48.28
2022-08-18T02:56:32.836Z,46.97
2022-08-18T02:59:09.630Z,51.05
2022-08-18T03:01:39.591Z,47.15
2022-08-18T03:04:09.029Z,46.05
2022-08-18T03:06:37.978Z,47.42
2022-08-18T03:09:07.296Z,50.35
2022-08-18T03:11:34.136Z,47.85
2022-08-18T03:14:01.291Z,46.03
2022-08-18T03:16:32.659Z,47.83
2022-08-18T03:19:00.981Z,43.20
2022-08-18T03:21:30.389Z,46.28
2022-08-18T03:24:01.034Z,49.70
2022-08-18T03:26:30.444Z,51.95
2022-08-18T03:28:58.818Z,49.70
2022-08-18T03:31:31.236Z,53.17
2022-08-18T03:33:59.915Z,53.72
2022-08-18T03:36:30.054Z,51.85
2022-08-18T03:38:57.198Z,49.78
2022-08-18T03:41:44.042Z,54.42
2022-08-18T03:44:15.066Z,49.05
2022-08-18T03:46:44.679Z,54.75
2022-08-18T03:49:12.266Z,55.38
2022-08-18T03:51:43.519Z,54.33
2022-08-18T03:54:13.120Z,54.70
2022-08-18T03:56:41.230Z,58.05
2022-08-18T03:59:12.334Z,56.95
2022-08-18T04:01:42.140Z,51.88
2022-08-18T04:04:12.562Z,58.90
2022-08-18T04:06:50.043Z,54.28
2022-08-18T04:09:17.997Z,51.08
2022-08-18T04:11:45.278Z,50.80
2022-08-18T04:14:14.570Z,51.60
2022-08-18T04:16:41.633Z,50.63
2022-08-18T04:19:09.914Z,56.28
2022-08-18T04:21:39.414Z,54.45
2022-08-18T04:24:08.240Z,50.75
2022-08-18T04:26:38.845Z,48.40
2022-08-18T04:29:07.968Z,61.92
2022-08-18T04:31:35.590Z,55.95
2022-08-18T04:34:03.712Z,51.42
2022-08-18T04:36:34.153Z,56.92
2022-08-18T04:39:02.327Z,56.97
2022-08-18T04:41:29.425Z,52.60
2022-08-18T04:44:01.004Z,64.53
2022-08-18T04:46:30.343Z,65.55
2022-08-18T04:48:59.250Z,70.75
2022-08-18T04:52:36.519Z,73.72
2022-08-18T04:54:16.202Z,75.13
2022-08-18T04:56:43.488Z,86.38
2022-08-18T04:59:12.541Z,85.18
2022-08-18T05:01:42.839Z,86.30
2022-08-18T05:04:10.222Z,89.30
2022-08-18T05:06:37.486Z,87.20
2022-08-18T05:09:06.756Z,84.30
2022-08-18T05:11:34.854Z,85.50
2022-08-18T05:14:04.821Z,86.57
2022-08-18T05:16:36.502Z,83.78
2022-08-18T05:19:19.431Z,84.35
2022-08-18T05:21:46.342Z,86.75
2022-08-18T05:24:17.998Z,87.80
2022-08-18T05:26:45.832Z,94.47
2022-08-18T05:29:18.878Z,87.80
2022-08-18T05:31:47.505Z,87.82
2022-08-18T05:34:14.994Z,88.05
2022-08-18T05:36:47.584Z,85.57
2022-08-18T05:39:38.558Z,83.93
2022-08-18T05:42:17.721Z,78.97
2022-08-18T05:44:48.277Z,76.32
2022-08-18T05:47:30.585Z,72.85
2022-08-18T05:50:03.669Z,68.35
2022-08-18T05:52:55.080Z,65.78
2022-08-18T05:55:48.246Z,64.28
2022-08-18T05:58:33.391Z,65.72
2022-08-18T06:01:08.771Z,59.72
2022-08-18T06:03:59.796Z,53.00
2022-08-18T06:06:31.739Z,54.78
2022-08-18T06:09:22.339Z,52.08
2022-08-18T06:11:49.937Z,51.42
2022-08-18T06:14:16.965Z,50.42
2022-08-18T06:17:05.877Z,48.03
2022-08-18T06:20:03.228Z,48.78
2022-08-18T06:22:59.916Z,48.72
2022-08-18T06:25:57.595Z,46.08
2022-08-18T06:28:26.142Z,47.30
2022-08-18T06:31:04.072Z,47.47
2022-08-18T06:33:50.577Z,50.38
2022-08-18T06:36:20.061Z,44.55
2022-08-18T06:39:14.900Z,45.42
2022-08-18T06:41:48.693Z,44.28
2022-08-18T06:44:37.618Z,45.78
2022-08-18T06:47:16.619Z,39.33
2022-08-18T06:49:55.358Z,37.63
2022-08-18T06:52:33.581Z,36.33
2022-08-18T06:55:08.836Z,33.60
2022-08-18T06:57:57.989Z,35.38
2022-08-18T07:00:32.490Z,32.65
2022-08-18T07:03:18.104Z,33.85
2022-08-18T07:06:23.453Z,31.35
2022-08-18T07:08:53.459Z,31.10
2022-08-18T07:11:29.956Z,31.75
2022-08-18T07:14:17.069Z,31.63
2022-08-18T07:17:00.295Z,28.52
2022-08-18T07:19:32.007Z,26.33
2022-08-18T07:22:04.205Z,28.90
2022-08-18T07:24:35.709Z,32.00
2022-08-18T07:27:08.385Z,30.70
2022-08-18T07:29:38.591Z,30.52
2022-08-18T07:32:21.514Z,27.30
2022-08-18T07:34:53.711Z,31.35
2022-08-18T07:37:28.954Z,30.67
2022-08-18T07:40:22.238Z,31.38
2022-08-18T07:43:02.142Z,32.25
2022-08-18T07:45:45.218Z,31.95
2022-08-18T07:48:40.005Z,29.67
2022-08-18T07:51:24.152Z,30.67
2022-08-18T07:54:00.399Z,28.25
2022-08-18T07:57:20.342Z,31.45
2022-08-18T08:00:01.742Z,32.40
2022-08-18T08:02:44.599Z,31.10
2022-08-18T08:05:42.089Z,30.73
2022-08-18T08:08:30.231Z,30.35
2022-08-18T08:11:28.561Z,30.42
2022-08-18T08:14:37.311Z,33.22
2022-08-18T08:17:19.256Z,32.10
2022-08-18T08:20:16.319Z,31.33
2022-08-18T08:23:40.068Z,34.92
2022-08-18T08:26:41.406Z,36.40
2022-08-18T08:29:20.294Z,33.05
2022-08-18T08:32:01.568Z,35.05
2022-08-18T08:34:38.357Z,31.38
2022-08-18T08:37:09.308Z,33.60
2022-08-18T08:39:59.845Z,32.83
2022-08-18T08:42:55.285Z,29.95
2022-08-18T08:45:28.320Z,33.45
2022-08-18T08:48:08.873Z,34.15
2022-08-18T08:50:45.305Z,34.95
2022-08-18T08:53:21.799Z,32.00
2022-08-18T08:55:53.598Z,30.35
2022-08-18T08:58:26.669Z,28.23
2022-08-18T09:00:55.440Z,33.53
2022-08-18T09:03:47.223Z,31.52
2022-08-18T09:09:14.755Z,29.83
2022-08-18T09:12:07.581Z,28.20
2022-08-18T09:15:05.294Z,29.83
2022-08-18T09:17:50.890Z,32.63
2022-08-18T09:20:49.704Z,31.15
2022-08-18T09:23:30.649Z,28.42
2022-08-18T09:26:32.339Z,30.17
2022-08-18T09:29:31.957Z,27.90
2022-08-18T09:32:23.042Z,25.67
2022-08-18T09:35:52.059Z,24.73
2022-08-18T09:39:05.420Z,22.27
2022-08-18T09:41:45.948Z,21.30
2022-08-18T09:45:04.426Z,22.23
2022-08-18T09:47:31.396Z,18.00
2022-08-18T09:51:17.981Z,24.48
2022-08-18T09:57:05.134Z,18.48
2022-08-18T10:00:33.848Z,19.75
2022-08-18T10:06:18.625Z,19.23
2022-08-18T10:09:27.104Z,19.35
2022-08-18T10:12:29.667Z,20.30
2022-08-18T10:15:27.215Z,19.50
2022-08-18T10:18:37.738Z,19.50
2022-08-18T10:21:17.305Z,20.35
2022-08-18T10:27:05.121Z,18.60
2022-08-18T10:29:49.391Z,20.50
2022-08-18T10:32:16.146Z,26.33
2022-08-18T10:34:52.582Z,24.55
2022-08-18T10:37:39.701Z,25.08
2022-08-18T10:40:09.524Z,23.80
2022-08-18T10:42:49.599Z,23.40
2022-08-18T10:45:31.046Z,22.50
2022-08-18T10:48:19.720Z,21.60
2022-08-18T10:51:21.427Z,21.90
2022-08-18T10:54:05.913Z,20.88
2022-08-18T10:56:49.848Z,19.75
2022-08-18T10:59:54.757Z,18.77
2022-08-18T11:03:13.990Z,22.25
2022-08-18T11:05:35.721Z,21.33
2022-08-18T11:08:15.969Z,19.08
2022-08-18T11:11:27.603Z,19.00
2022-08-18T11:13:55.623Z,20.35
2022-08-18T11:19:41.894Z,17.92
2022-08-18T11:22:31.543Z,17.80
2022-08-18T11:25:03.275Z,18.80
2022-08-18T11:27:37.729Z,23.75
2022-08-18T11:32:57.919Z,16.17
2022-08-18T11:35:49.411Z,18.10
2022-08-18T11:38:23.117Z,15.63
2022-08-18T11:41:12.699Z,15.75
2022-08-18T11:43:47.480Z,16.48
2022-08-18T11:46:24.061Z,19.25
2022-08-18T11:48:58.428Z,14.37
2022-08-18T11:51:32.740Z,15.68
2022-08-18T11:54:50.290Z,13.57
2022-08-18T11:57:49.303Z,15.38
2022-08-18T12:00:42.492Z,16.42
2022-08-18T12:03:16.332Z,13.40
2022-08-18T12:06:02.146Z,13.02
2022-08-18T12:08:58.081Z,15.55
2022-08-18T12:11:41.182Z,15.15
2022-08-18T12:14:32.399Z,22.45
2022-08-18T12:17:08.530Z,20.45
2022-08-18T12:19:35.401Z,13.77
2022-08-18T12:22:22.397Z,11.93
2022-08-18T12:24:50.465Z,12.98
2022-08-18T12:27:22.522Z,10.50
2022-08-18T12:29:57.652Z,11.15
2022-08-18T12:32:41.785Z,10.93
2022-08-18T12:35:24.286Z,13.13
2022-08-18T12:38:03.201Z,11.43
2022-08-18T12:40:38.419Z,12.05
2022-08-18T12:43:08.175Z,13.80
2022-08-18T12:45:43.558Z,13.77
2022-08-18T12:48:16.390Z,11.95
2022-08-18T12:50:54.558Z,9.25
2022-08-18T12:53:58.505Z,7.70
2022-08-18T12:56:50.960Z,8.55
2022-08-18T12:59:18.890Z,6.15
2022-08-18T13:01:46.605Z,6.80
2022-08-18T13:04:15.465Z,6.07
2022-08-18T13:07:00.305Z,10.85
2022-08-18T13:09:34.724Z,6.60
2022-08-18T13:12:17.324Z,5.57
2022-08-18T13:14:47.245Z,13.27
2022-08-18T13:17:30.171Z,8.38
2022-08-18T13:20:09.493Z,7.63
2022-08-18T13:22:40.169Z,10.82
2022-08-18T13:25:10.519Z,5.03
2022-08-18T13:27:38.257Z,7.32
2022-08-18T13:30:16.864Z,8.93
2022-08-18T13:33:02.295Z,6.30
2022-08-18T13:35:38.099Z,6.13
2022-08-18T13:38:17.076Z,8.00
2022-08-18T13:40:50.925Z,8.93
2022-08-18T13:43:23.292Z,6.35
2022-08-18T13:45:53.398Z,8.88
2022-08-18T13:48:24.092Z,7.20
2022-08-18T13:50:53.259Z,4.20
2022-08-18T13:53:22.486Z,4.65
2022-08-18T13:55:51.608Z,9.15
2022-08-18T13:58:21.123Z,5.35
2022-08-18T14:01:01.854Z,7.70
2022-08-18T14:03:47.398Z,5.00
2022-08-18T14:06:15.730Z,8.43
2022-08-18T14:08:49.611Z,4.95
2022-08-18T14:11:17.396Z,7.80
2022-08-18T14:13:45.082Z,6.45
2022-08-18T14:16:18.722Z,5.22
2022-08-18T14:19:14.020Z,5.60
2022-08-18T14:22:05.167Z,5.72
2022-08-18T14:24:52.788Z,4.85
2022-08-18T14:27:25.110Z,5.65
2022-08-18T14:29:52.867Z,4.47
2022-08-18T14:32:29.244Z,3.63
2022-08-18T14:35:32.059Z,3.72
2022-08-18T14:37:49.104Z,3.75
2022-08-18T14:40:17.041Z,5.70
2022-08-18T14:42:54.821Z,4.50
2022-08-18T14:45:31.407Z,4.80
2022-08-18T14:48:06.604Z,5.43
2022-08-18T14:50:38.470Z,3.92
2022-08-18T14:53:06.607Z,6.50
2022-08-18T14:55:34.453Z,9.57
2022-08-18T14:58:03.130Z,4.10
2022-08-18T15:00:30.054Z,5.60
2022-08-18T15:02:59.480Z,5.10
2022-08-18T15:05:31.878Z,4.20
2022-08-18T15:08:03.592Z,4.43
2022-08-18T15:10:31.309Z,4.15
2022-08-18T15:12:59.675Z,5.85
2022-08-18T15:15:27.479Z,8.07
2022-08-18T15:18:09.822Z,3.85
2022-08-18T15:20:57.900Z,4.18
2022-08-18T15:23:44.014Z,3.25
2022-08-18T15:26:11.238Z,2.88
2022-08-18T15:28:40.324Z,5.97
2022-08-18T15:33:54.727Z,4.18
2022-08-18T15:36:29.320Z,4.82
2022-08-18T15:38:56.746Z,8.95
2022-08-18T15:41:31.247Z,5.30
2022-08-18T15:43:58.152Z,3.70
2022-08-18T15:46:24.915Z,4.15
2022-08-18T15:48:53.221Z,3.65
2022-08-18T15:51:20.169Z,4.85
2022-08-18T15:53:46.989Z,3.75
2022-08-18T15:56:25.971Z,3.05
2022-08-18T15:58:53.112Z,4.05
2022-08-18T16:06:40.871Z,4.32
2022-08-18T16:09:08.493Z,5.18
2022-08-18T16:11:35.460Z,6.43
2022-08-18T16:14:02.211Z,7.30
2022-08-18T16:16:35.825Z,4.28
2022-08-18T16:19:07.941Z,4.13
2022-08-18T16:21:38.370Z,4.15
2022-08-18T16:24:05.952Z,3.87
2022-08-18T16:26:32.919Z,3.15
2022-08-18T16:29:01.749Z,4.28
2022-08-18T16:31:28.925Z,4.43
2022-08-18T16:33:57.146Z,7.85
2022-08-18T16:36:27.593Z,4.35
2022-08-18T16:38:56.022Z,4.53
2022-08-18T16:41:26.464Z,6.22
2022-08-18T16:43:53.470Z,6.68
2022-08-18T16:46:25.934Z,4.22
2022-08-18T16:48:54.871Z,6.70
2022-08-18T16:51:23.577Z,5.90
2022-08-18T16:53:52.928Z,4.80
2022-08-18T16:56:23.552Z,4.03
2022-08-18T16:59:09.032Z,4.60
2022-08-18T17:01:55.816Z,6.80
2022-08-18T17:04:26.077Z,4.82
2022-08-18T17:06:52.801Z,6.63
2022-08-18T17:09:20.292Z,4.05
2022-08-18T17:11:51.335Z,4.10
2022-08-18T17:14:20.919Z,6.72
2022-08-18T17:16:49.303Z,6.63
2022-08-18T17:19:16.054Z,6.03
2022-08-18T17:21:43.036Z,4.72
2022-08-18T17:24:11.324Z,5.55
2022-08-18T17:27:03.895Z,3.95
2022-08-18T17:29:59.786Z,3.83
2022-08-18T17:33:09.492Z,5.18
2022-08-18T17:35:49.892Z,3.38
2022-08-18T17:38:34.534Z,8.13
2022-08-18T17:41:09.544Z,4.03
2022-08-18T17:46:34.157Z,4.05
2022-08-18T17:50:04.174Z,8.65
2022-08-18T17:52:53.378Z,3.80
2022-08-18T17:55:40.594Z,4.93
2022-08-18T17:58:38.074Z,6.78
2022-08-18T18:02:30.304Z,3.70
2022-08-18T18:05:06.695Z,5.93
2022-08-18T18:07:50.287Z,6.20
2022-08-18T18:10:26.567Z,4.93
2022-08-18T18:13:06.568Z,3.45
2022-08-18T18:15:34.311Z,4.85
2022-08-18T18:18:21.904Z,8.30
2022-08-18T18:21:06.087Z,5.07
2022-08-18T18:23:41.295Z,3.33
2022-08-18T18:26:36.334Z,5.53
2022-08-18T18:29:29.153Z,8.63
2022-08-18T18:32:25.934Z,6.53
2022-08-18T18:35:19.035Z,4.60
2022-08-18T18:37:50.370Z,3.70
2022-08-18T18:42:50.619Z,4.20
2022-08-18T18:45:26.918Z,3.95
2022-08-18T18:48:04.216Z,7.47
2022-08-18T18:50:39.595Z,4.85
2022-08-18T18:53:52.559Z,7.93
2022-08-18T18:56:41.122Z,3.90
2022-08-18T18:59:35.582Z,7.07
2022-08-18T19:02:33.769Z,3.53
2022-08-18T19:05:38.056Z,5.95
2022-08-18T19:08:45.181Z,4.25
2022-08-18T19:11:24.996Z,5.30
2022-08-18T19:14:03.397Z,8.70
2022-08-18T19:16:36.237Z,3.38
2022-08-18T19:19:38.008Z,3.65
2022-08-18T19:22:18.594Z,7.00
2022-08-18T19:24:57.882Z,3.80
2022-08-18T19:27:28.886Z,5.80
2022-08-18T19:29:58.779Z,7.38
2022-08-18T19:32:35.026Z,3.47
2022-08-18T19:35:04.493Z,5.18
2022-08-18T19:37:52.527Z,5.55
2022-08-18T19:40:28.692Z,5.68
2022-08-18T19:43:06.203Z,5.50
2022-08-18T19:45:53.097Z,4.78
2022-08-18T19:48:30.019Z,4.88
2022-08-18T19:51:12.340Z,9.52
2022-08-18T19:54:04.499Z,7.30
2022-08-18T19:56:59.500Z,6.60
2022-08-18T20:00:10.233Z,6.22
2022-08-18T20:03:04.161Z,8.23
2022-08-18T20:05:33.840Z,4.78
2022-08-18T20:08:42.825Z,6.22
2022-08-18T20:11:46.391Z,6.70
2022-08-18T20:14:17.184Z,7.05
2022-08-18T20:17:12.766Z,7.13
2022-08-18T20:20:12.943Z,6.80
2022-08-18T20:22:46.507Z,6.18
2022-08-18T20:25:17.455Z,5.68
2022-08-18T20:27:52.577Z,7.15
2022-08-18T20:30:30.495Z,8.82
2022-08-18T20:33:25.729Z,4.75
2022-08-18T20:36:02.271Z,8.43
2022-08-18T20:38:48.105Z,9.60
2022-08-18T20:41:30.019Z,8.75
2022-08-18T20:44:21.561Z,9.80
2022-08-18T20:47:33.760Z,10.40
2022-08-18T20:50:20.122Z,7.47
2022-08-18T20:53:08.781Z,9.00
2022-08-18T20:55:55.448Z,6.93
2022-08-18T20:58:31.972Z,12.73
2022-08-18T21:06:39.618Z,6.20
2022-08-18T21:28:55.576Z,12.20
2022-08-18T21:31:44.394Z,7.97
2022-08-18T21:34:35.524Z,8.95
2022-08-18T21:37:08.626Z,12.75
2022-08-18T21:39:46.478Z,11.52
2022-08-18T21:42:26.118Z,5.82
2022-08-18T21:44:55.520Z,7.82
2022-08-18T21:47:34.859Z,10.18
2022-08-18T21:50:12.083Z,12.82
2022-08-18T21:52:51.692Z,8.50
2022-08-18T21:55:41.676Z,12.18
2022-08-18T21:58:16.705Z,9.15
2022-08-18T22:01:00.232Z,9.18
2022-08-18T22:03:28.101Z,10.07
2022-08-18T22:06:02.901Z,10.48
2022-08-18T22:08:33.433Z,12.77
2022-08-18T22:12:00.402Z,8.10
2022-08-18T22:14:26.960Z,5.18
2022-08-18T22:17:25.668Z,7.75
2022-08-18T22:19:52.634Z,8.65
2022-08-18T22:22:41.356Z,10.90
2022-08-18T22:25:12.279Z,7.40
2022-08-18T22:27:40.044Z,7.32
2022-08-18T22:30:08.079Z,14.27
2022-08-18T22:32:37.691Z,8.90
2022-08-18T22:35:06.976Z,7.07
2022-08-18T22:37:42.352Z,8.52
2022-08-18T22:40:13.344Z,8.93
2022-08-18T22:42:40.743Z,10.65
2022-08-18T22:45:12.243Z,6.13
2022-08-18T22:47:43.642Z,6.32
2022-08-18T22:50:13.183Z,8.30
2022-08-18T22:52:48.157Z,7.93
2022-08-18T22:55:23.657Z,10.57
2022-08-18T22:57:55.794Z,15.05
2022-08-18T23:00:23.120Z,11.40
2022-08-18T23:02:50.628Z,10.32
2022-08-18T23:05:17.507Z,8.27
2022-08-18T23:07:45.987Z,7.13
2022-08-18T23:10:14.125Z,7.95
2022-08-18T23:12:46.762Z,10.05
2022-08-18T23:15:15.461Z,11.63
2022-08-18T23:17:43.361Z,11.38
2022-08-18T23:20:17.965Z,12.65
2022-08-18T23:22:47.812Z,8.70
2022-08-18T23:25:14.633Z,10.43
2022-08-18T23:27:42.738Z,13.93
2022-08-18T23:30:10.224Z,9.13
2022-08-18T23:32:36.994Z,13.00
2022-08-18T23:35:04.401Z,8.15
2022-08-18T23:37:31.555Z,11.63
2022-08-18T23:39:58.668Z,7.05
2022-08-18T23:42:26.160Z,8.15
2022-08-18T23:44:52.841Z,8.52
2022-08-18T23:47:20.950Z,13.27
2022-08-18T23:49:48.025Z,9.10
2022-08-18T23:52:14.960Z,8.73
2022-08-18T23:54:41.799Z,11.70
2022-08-18T23:57:08.509Z,10.98
2022-08-18T23:59:35.238Z,13.65
